Time;durP1;ratioP1;P1;durP2;ratioP2;P2;SDS_P1;SDS_P2;PMS_P1;PMS_P2;Temp;Humidity;BMP_temperature;BMP_pressure;BME280_temperature;BME280_humidity;BME280_pressure;Samples;Min_cycle;Max_cycle;Signal;HPM_P1;HPM_P2
2023/04/13 00:00:47;;;;;;;3.87;2.70;;;11.60;92.00;;;;;;5096148;28;20556;-80
2023/04/13 00:03:15;;;;;;;3.77;2.63;;;11.60;92.00;;;;;;5096343;28;20217;-80
2023/04/13 00:05:42;;;;;;;3.37;3.07;;;11.60;92.10;;;;;;5114686;28;20260;-80
2023/04/13 00:08:08;;;;;;;3.03;2.83;;;11.50;92.10;;;;;;5096697;28;20253;-83
2023/04/13 00:10:35;;;;;;;3.67;2.93;;;11.40;92.40;;;;;;5114450;28;20562;-81
2023/04/13 00:13:04;;;;;;;4.57;2.60;;;11.40;92.20;;;;;;5116165;28;20182;-78
2023/04/13 00:15:31;;;;;;;3.03;2.83;;;11.40;92.20;;;;;;5115852;28;20309;-79
2023/04/13 00:17:57;;;;;;;3.10;2.80;;;11.40;92.20;;;;;;5114867;28;20196;-79
2023/04/13 00:20:23;;;;;;;3.27;2.90;;;11.50;92.30;;;;;;5114037;28;20693;-79
2023/04/13 00:22:49;;;;;;;2.73;2.53;;;11.50;92.50;;;;;;5113330;28;20282;-78
2023/04/13 00:25:15;;;;;;;2.83;2.63;;;11.50;92.20;;;;;;5114379;28;20168;-77
2023/04/13 00:27:42;;;;;;;3.23;3.00;;;11.50;92.00;;;;;;5114356;28;20173;-78
2023/04/13 00:30:09;;;;;;;3.60;2.43;;;11.50;92.00;;;;;;5095553;28;20174;-77
2023/04/13 00:32:36;;;;;;;2.77;2.57;;;11.60;92.00;;;;;;5114064;28;20252;-78
2023/04/13 00:35:03;;;;;;;3.23;2.93;;;11.50;92.10;;;;;;5113916;28;20273;-77
2023/04/13 00:37:29;;;;;;;2.83;2.63;;;11.50;92.00;;;;;;5096167;28;20686;-80
2023/04/13 00:39:55;;;;;;;2.80;2.60;;;11.50;92.10;;;;;;5113683;28;20530;-76
2023/04/13 00:42:21;;;;;;;3.23;2.80;;;11.50;92.20;;;;;;5114281;28;20193;-79
2023/04/13 00:44:47;;;;;;;3.13;2.90;;;11.60;92.20;;;;;;5123857;28;20199;-77
2023/04/13 00:47:16;;;;;;;3.13;2.73;;;11.60;92.20;;;;;;5116237;28;20177;-77
2023/04/13 00:49:43;;;;;;;3.40;2.77;;;11.50;92.20;;;;;;5114104;28;20269;-77
2023/04/13 00:52:12;;;;;;;3.00;2.80;;;11.70;92.30;;;;;;5114045;28;20177;-80
2023/04/13 00:54:38;;;;;;;2.67;2.47;;;11.50;92.40;;;;;;5113741;28;20205;-77
2023/04/13 00:57:05;;;;;;;4.07;2.70;;;11.60;92.40;;;;;;5113878;28;20180;-79
2023/04/13 00:59:30;;;;;;;3.20;2.90;;;11.50;92.40;;;;;;5114195;28;20637;-77
2023/04/13 01:01:57;;;;;;;2.83;2.63;;;11.50;92.40;;;;;;5113508;28;20230;-80
2023/04/13 01:04:29;;;;;;;2.60;2.43;;;11.50;92.50;;;;;;5114396;28;20249;-78
2023/04/13 01:07:03;;;;;;;2.70;2.50;;;11.50;92.50;;;;;;5079212;28;20254;-79
2023/04/13 01:09:44;;;;;;;2.60;2.40;;;11.50;92.60;;;;;;5113166;28;20192;-78
2023/04/13 01:12:25;;;;;;;2.83;2.47;;;11.50;92.70;;;;;;5113349;28;20321;-78
2023/04/13 01:15:13;;;;;;;3.10;2.90;;;11.40;93.40;;;;;;5114983;28;20222;-77
2023/04/13 01:17:43;;;;;;;3.07;2.87;;;11.40;94.00;;;;;;5116091;28;20648;-80
2023/04/13 01:20:14;;;;;;;2.87;2.67;;;11.40;94.50;;;;;;5114161;28;20242;-78
2023/04/13 01:23:01;;;;;;;2.90;2.70;;;11.30;94.90;;;;;;5114963;28;20570;-79
2023/04/13 01:25:43;;;;;;;3.33;3.03;;;11.30;95.40;;;;;;5097006;28;20229;-76
2023/04/13 01:28:14;;;;;;;3.37;2.77;;;11.30;97.60;;;;;;5095257;28;20170;-79
2023/04/13 01:30:41;;;;;;;2.97;2.77;;;11.30;97.60;;;;;;5095170;28;20180;-78
2023/04/13 01:33:09;;;;;;;3.10;2.90;;;11.20;98.80;;;;;;5097414;28;20207;-81
2023/04/13 01:35:37;;;;;;;3.30;3.10;;;11.10;99.70;;;;;;5113314;28;20655;-81
2023/04/13 01:38:03;;;;;;;3.80;3.00;;;11.10;99.90;;;;;;5094801;28;20723;-84
2023/04/13 01:40:30;;;;;;;3.60;3.30;;;11.10;99.90;;;;;;5112697;28;20216;-82
2023/04/13 01:42:56;;;;;;;4.13;3.20;;;11.00;99.90;;;;;;5112885;28;20212;-78
2023/04/13 01:45:26;;;;;;;3.30;2.97;;;10.90;99.90;;;;;;5112755;28;20216;-83
2023/04/13 01:47:57;;;;;;;3.60;3.30;;;10.80;99.90;;;;;;5113277;28;20169;-81
2023/04/13 01:50:38;;;;;;;3.30;3.10;;;10.80;99.90;;;;;;5112887;28;20179;-83
2023/04/13 01:53:10;;;;;;;3.50;3.20;;;10.80;99.90;;;;;;5113046;28;20159;-83
2023/04/13 01:55:40;;;;;;;3.20;3.00;;;10.80;99.90;;;;;;5112824;28;20630;-79
2023/04/13 01:58:11;;;;;;;4.03;3.63;;;10.80;99.90;;;;;;5112811;28;20178;-81
2023/04/13 02:00:39;;;;;;;5.27;3.07;;;10.80;99.90;;;;;;5112590;28;20583;-82
2023/04/13 02:03:08;;;;;;;3.50;3.17;;;10.60;99.90;;;;;;5113226;28;20734;-82
2023/04/13 02:05:39;;;;;;;3.50;3.20;;;10.60;99.90;;;;;;5094658;28;20571;-83
2023/04/13 02:08:06;;;;;;;3.30;3.10;;;10.50;99.90;;;;;;5095421;28;20165;-83
2023/04/13 02:10:36;;;;;;;5.27;3.90;;;10.50;99.90;;;;;;5112373;28;20176;-80
2023/04/13 02:13:03;;;;;;;3.57;3.27;;;10.50;99.90;;;;;;5112477;28;20240;-82
2023/04/13 02:15:30;;;;;;;3.57;3.27;;;10.40;99.90;;;;;;5090865;28;20219;-77
2023/04/13 02:17:55;;;;;;;3.20;3.00;;;10.40;99.90;;;;;;5092186;28;20203;-81
2023/04/13 02:20:21;;;;;;;4.70;3.43;;;10.40;99.90;;;;;;5090805;28;20200;-84
2023/04/13 02:22:47;;;;;;;3.43;3.13;;;10.30;99.90;;;;;;5090667;28;20309;-86
2023/04/13 02:25:16;;;;;;;5.50;3.43;;;10.30;99.90;;;;;;5092171;28;20610;-82
2023/04/13 02:27:42;;;;;;;3.67;3.37;;;10.30;99.90;;;;;;5092250;28;20175;-85
2023/04/13 02:30:09;;;;;;;4.13;3.30;;;10.40;99.90;;;;;;5091964;28;20165;-79
2023/04/13 02:32:39;;;;;;;3.13;2.93;;;10.40;99.90;;;;;;5092097;28;20180;-83
2023/04/13 02:35:11;;;;;;;4.13;3.17;;;10.30;99.90;;;;;;5092215;28;20247;-79
2023/04/13 02:37:40;;;;;;;3.90;3.50;;;10.30;99.90;;;;;;5093881;28;20552;-79
2023/04/13 02:40:11;;;;;;;4.27;3.43;;;10.30;99.90;;;;;;5097396;28;20228;-79
2023/04/13 02:42:37;;;;;;;4.70;3.60;;;10.40;99.90;;;;;;5094699;28;20179;-78
2023/04/13 02:45:06;;;;;;;3.83;3.53;;;10.40;99.90;;;;;;5091394;28;20265;-79
2023/04/13 02:47:33;;;;;;;5.37;3.60;;;10.40;99.90;;;;;;5095598;28;20178;-79
2023/04/13 02:50:00;;;;;;;4.10;3.80;;;10.50;99.90;;;;;;5095845;28;20216;-77
2023/04/13 02:52:26;;;;;;;3.70;3.30;;;10.50;99.90;;;;;;5096236;28;20184;-79
2023/04/13 02:54:53;;;;;;;4.43;3.60;;;10.50;99.90;;;;;;5097200;28;20167;-77
2023/04/13 02:57:22;;;;;;;3.70;3.40;;;10.50;99.90;;;;;;5096948;28;20257;-77
2023/04/13 02:59:48;;;;;;;3.63;3.30;;;10.50;99.90;;;;;;5094324;28;20325;-80
2023/04/13 03:02:16;;;;;;;4.37;3.50;;;10.50;99.90;;;;;;5094454;28;20249;-79
2023/04/13 03:04:42;;;;;;;3.40;3.13;;;10.40;99.90;;;;;;5095736;28;20268;-83
2023/04/13 03:07:09;;;;;;;3.80;3.50;;;10.40;99.90;;;;;;5096250;28;20948;-82
2023/04/13 03:09:41;;;;;;;3.57;3.27;;;10.50;99.90;;;;;;5098697;28;20177;-80
2023/04/13 03:12:08;;;;;;;3.43;3.20;;;10.40;99.90;;;;;;5097821;28;20175;-77
2023/04/13 03:14:35;;;;;;;3.27;2.97;;;10.40;99.90;;;;;;5102984;28;20264;-80
2023/04/13 03:17:03;;;;;;;4.07;3.27;;;10.40;99.90;;;;;;5116424;28;20163;-80
2023/04/13 03:19:29;;;;;;;3.40;3.20;;;10.30;99.90;;;;;;5116122;28;20171;-77
2023/04/13 03:21:55;;;;;;;3.70;3.37;;;10.30;99.90;;;;;;5116145;28;20175;-79
2023/04/13 03:24:22;;;;;;;5.27;3.40;;;10.30;99.90;;;;;;5115340;28;20207;-81
2023/04/13 03:26:48;;;;;;;3.60;3.30;;;10.30;99.90;;;;;;5115685;28;20163;-78
2023/04/13 03:29:13;;;;;;;3.83;3.20;;;10.30;99.90;;;;;;5115275;28;20175;-84
2023/04/13 03:31:40;;;;;;;3.73;3.43;;;10.30;99.90;;;;;;5115581;28;20173;-79
2023/04/13 03:34:05;;;;;;;4.03;3.57;;;10.40;99.90;;;;;;5097048;28;20182;-85
2023/04/13 03:36:31;;;;;;;3.70;3.07;;;10.40;99.90;;;;;;5115533;28;20176;-79
2023/04/13 03:38:57;;;;;;;3.80;3.50;;;10.30;99.90;;;;;;5117564;28;20176;-78
2023/04/13 03:41:23;;;;;;;3.30;3.00;;;10.30;99.90;;;;;;5120473;28;20180;-80
2023/04/13 03:43:49;;;;;;;3.73;3.43;;;10.30;99.90;;;;;;5115957;28;20252;-83
2023/04/13 03:46:15;;;;;;;3.50;3.30;;;10.30;99.90;;;;;;5115838;28;20171;-82
2023/04/13 03:48:42;;;;;;;3.50;3.30;;;10.30;99.90;;;;;;5115463;28;20195;-79
2023/04/13 03:51:07;;;;;;;3.77;3.47;;;10.30;99.90;;;;;;5115707;28;20233;-79
2023/04/13 03:53:37;;;;;;;4.43;3.60;;;10.30;99.90;;;;;;5115436;28;20167;-83
2023/04/13 03:56:03;;;;;;;3.70;3.40;;;10.30;99.90;;;;;;5115482;28;20177;-85
2023/04/13 03:58:30;;;;;;;3.70;3.40;;;10.30;99.90;;;;;;5096881;28;20698;-80
2023/04/13 04:00:56;;;;;;;4.20;3.50;;;10.30;99.90;;;;;;5115289;28;20256;-77
2023/04/13 04:03:23;;;;;;;3.30;3.00;;;10.30;99.90;;;;;;5114693;28;20301;-77
2023/04/13 04:05:48;;;;;;;3.80;3.50;;;10.40;99.90;;;;;;5096629;28;20170;-79
2023/04/13 04:08:14;;;;;;;4.00;3.70;;;10.30;99.90;;;;;;5115250;28;20535;-77
2023/04/13 04:10:40;;;;;;;4.30;3.90;;;10.30;99.90;;;;;;5116369;28;20171;-78
2023/04/13 04:13:06;;;;;;;5.83;4.03;;;10.20;99.90;;;;;;5117066;28;20264;-79
2023/04/13 04:15:32;;;;;;;5.37;3.60;;;10.00;99.90;;;;;;5096834;28;20233;-82
2023/04/13 04:17:58;;;;;;;3.93;3.23;;;9.90;99.90;;;;;;5115098;28;20174;-84
2023/04/13 04:20:23;;;;;;;5.93;4.10;;;10.00;99.90;;;;;;5114831;28;20185;-79
2023/04/13 04:22:51;;;;;;;3.63;3.10;;;10.00;99.90;;;;;;5114916;28;20224;-78
2023/04/13 04:25:20;;;;;;;3.37;3.10;;;10.10;99.90;;;;;;5114398;28;20182;-80
2023/04/13 04:27:51;;;;;;;5.00;3.60;;;10.00;99.90;;;;;;5114838;28;20252;-77
2023/04/13 04:30:20;;;;;;;5.13;3.97;;;9.90;99.90;;;;;;5117796;28;20228;-78
2023/04/13 04:32:47;;;;;;;4.10;3.40;;;9.90;99.90;;;;;;5120458;28;20174;-80
2023/04/13 04:35:13;;;;;;;4.40;3.53;;;9.70;99.90;;;;;;5120886;28;20199;-78
2023/04/13 04:37:39;;;;;;;3.87;3.57;;;9.70;99.90;;;;;;5115665;28;20174;-82
2023/04/13 04:40:08;;;;;;;5.40;3.90;;;9.50;99.90;;;;;;5114822;28;20180;-80
2023/04/13 04:42:37;;;;;;;6.43;3.93;;;9.50;99.90;;;;;;5114183;28;20175;-78
2023/04/13 04:45:07;;;;;;;3.40;3.13;;;9.50;99.90;;;;;;5113769;28;20181;-80
2023/04/13 04:47:40;;;;;;;3.90;3.53;;;9.60;99.90;;;;;;5114101;28;20249;-81
2023/04/13 04:50:09;;;;;;;3.90;3.50;;;9.60;99.90;;;;;;5114845;28;20215;-77
2023/04/13 04:52:35;;;;;;;4.53;3.47;;;9.60;99.90;;;;;;5117070;28;20166;-79
2023/04/13 04:55:01;;;;;;;3.30;2.97;;;9.60;99.90;;;;;;5097838;28;20206;-81
2023/04/13 04:57:26;;;;;;;6.57;3.97;;;9.50;99.90;;;;;;5114619;28;20185;-77
2023/04/13 04:59:52;;;;;;;5.53;3.60;;;9.50;99.90;;;;;;5114572;28;20184;-82
2023/04/13 05:02:18;;;;;;;4.77;3.00;;;9.50;99.90;;;;;;5116904;28;20168;-84
2023/04/13 05:04:44;;;;;;;3.50;3.20;;;9.50;99.90;;;;;;5119230;28;20208;-79
2023/04/13 05:07:10;;;;;;;6.23;3.63;;;9.50;99.90;;;;;;5110492;28;20228;-81
2023/04/13 05:09:37;;;;;;;3.80;3.50;;;9.40;99.90;;;;;;5093194;28;20564;-82
2023/04/13 05:12:03;;;;;;;3.27;2.97;;;9.30;99.90;;;;;;5075379;28;20186;-84
2023/04/13 05:14:29;;;;;;;2.73;2.63;;;9.30;99.90;;;;;;5093188;28;20720;-80
2023/04/13 05:16:55;;;;;;;4.17;3.37;;;9.30;99.90;;;;;;5093325;28;20213;-81
2023/04/13 05:19:21;;;;;;;3.87;3.03;;;9.20;99.90;;;;;;5111875;28;20187;-79
2023/04/13 05:21:46;;;;;;;3.47;2.90;;;9.20;99.90;;;;;;5113349;28;20182;-84
2023/04/13 05:24:12;;;;;;;3.93;3.53;;;9.10;99.90;;;;;;5100107;28;20231;-79
2023/04/13 05:26:38;;;;;;;5.10;4.00;;;9.20;99.90;;;;;;5095175;28;20237;-78
2023/04/13 05:29:05;;;;;;;3.13;2.87;;;9.20;99.90;;;;;;5114292;28;20536;-82
2023/04/13 05:31:31;;;;;;;5.10;3.53;;;9.20;99.90;;;;;;5114783;28;20189;-79
2023/04/13 05:33:57;;;;;;;4.07;3.10;;;9.20;99.90;;;;;;5114217;28;20176;-83
2023/04/13 05:36:22;;;;;;;5.63;3.60;;;9.20;99.90;;;;;;5113151;28;20182;-80
2023/04/13 05:38:48;;;;;;;3.50;3.20;;;9.20;99.90;;;;;;5113034;28;20172;-83
2023/04/13 05:41:14;;;;;;;3.90;3.50;;;9.20;99.90;;;;;;5113316;28;20170;-78
2023/04/13 05:43:40;;;;;;;3.83;3.53;;;9.20;99.90;;;;;;5094942;28;20213;-83
2023/04/13 05:46:06;;;;;;;5.37;3.57;;;9.30;99.90;;;;;;5113611;28;20253;-83
2023/04/13 05:48:32;;;;;;;4.30;3.40;;;9.30;99.90;;;;;;5113047;28;20533;-79
2023/04/13 05:50:58;;;;;;;4.00;3.50;;;9.20;99.90;;;;;;5113583;28;20183;-78
2023/04/13 05:53:24;;;;;;;5.90;3.17;;;9.20;99.90;;;;;;5112898;28;20185;-78
2023/04/13 05:55:51;;;;;;;5.60;3.83;;;9.10;99.90;;;;;;5112442;28;20176;-80
2023/04/13 05:58:20;;;;;;;5.73;3.57;;;9.10;99.90;;;;;;5112713;28;20177;-82
2023/04/13 06:00:46;;;;;;;4.33;3.70;;;9.20;99.90;;;;;;5112420;28;20736;-78
2023/04/13 06:03:14;;;;;;;5.10;3.70;;;9.20;99.90;;;;;;5094128;28;20692;-75
2023/04/13 06:05:41;;;;;;;4.07;3.77;;;9.20;99.90;;;;;;5094246;28;20174;-79
2023/04/13 06:08:09;;;;;;;3.60;3.30;;;9.20;99.90;;;;;;5112729;28;20322;-80
2023/04/13 06:10:35;;;;;;;5.30;4.13;;;9.20;99.90;;;;;;5113459;28;20177;-77
2023/04/13 06:13:02;;;;;;;3.57;3.10;;;9.30;99.90;;;;;;5113053;28;20161;-81
2023/04/13 06:15:31;;;;;;;6.60;3.37;;;9.30;99.90;;;;;;5093923;28;20248;-76
2023/04/13 06:17:57;;;;;;;4.53;3.30;;;9.30;99.90;;;;;;5094075;28;20548;-76
2023/04/13 06:20:23;;;;;;;3.87;3.47;;;9.30;99.90;;;;;;5112233;28;20625;-78
2023/04/13 06:22:51;;;;;;;3.67;3.37;;;9.40;99.90;;;;;;5098151;28;20208;-79
2023/04/13 06:25:17;;;;;;;4.00;3.40;;;9.30;99.90;;;;;;5116851;28;20173;-79
2023/04/13 06:27:43;;;;;;;3.53;3.27;;;9.40;99.90;;;;;;5120859;28;20518;-78
2023/04/13 06:30:10;;;;;;;6.40;3.70;;;9.30;99.90;;;;;;5120264;28;20176;-78
2023/04/13 06:32:36;;;;;;;3.33;3.07;;;9.30;99.90;;;;;;5118966;28;20172;-76
2023/04/13 06:35:03;;;;;;;3.23;2.87;;;9.40;99.90;;;;;;5123252;28;20560;-77
2023/04/13 06:37:29;;;;;;;3.03;2.83;;;9.30;99.90;;;;;;5123174;28;20268;-76
2023/04/13 06:39:56;;;;;;;3.67;3.10;;;9.30;99.90;;;;;;5098611;28;20842;-77
2023/04/13 06:42:22;;;;;;;4.97;3.37;;;9.30;99.90;;;;;;5098597;28;20506;-75
2023/04/13 06:44:48;;;;;;;4.47;3.37;;;9.30;99.90;;;;;;5097958;28;20676;-79
2023/04/13 06:47:14;;;;;;;3.10;2.90;;;9.30;99.90;;;;;;5116476;28;20256;-81
2023/04/13 06:49:41;;;;;;;3.50;3.20;;;9.40;99.90;;;;;;5117181;28;20184;-76
2023/04/13 06:52:07;;;;;;;3.33;2.97;;;9.50;99.90;;;;;;5097837;28;20234;-78
2023/04/13 06:54:34;;;;;;;3.23;2.90;;;9.40;99.90;;;;;;5115897;28;20224;-77
2023/04/13 06:57:00;;;;;;;3.10;2.70;;;9.50;99.90;;;;;;5115516;28;20580;-75
2023/04/13 06:59:26;;;;;;;2.77;2.57;;;9.50;99.90;;;;;;5115896;28;20539;-78
2023/04/13 07:01:52;;;;;;;3.20;2.90;;;9.40;99.90;;;;;;5115738;28;20319;-78
2023/04/13 07:04:18;;;;;;;3.37;3.07;;;9.50;99.90;;;;;;5115841;28;20280;-79
2023/04/13 07:06:45;;;;;;;3.17;2.87;;;9.50;99.90;;;;;;5115642;28;20188;-77
2023/04/13 07:09:11;;;;;;;3.17;2.40;;;9.50;99.90;;;;;;5115240;28;20173;-80
2023/04/13 07:11:37;;;;;;;2.50;2.40;;;9.60;99.90;;;;;;5115534;28;20180;-78
2023/04/13 07:14:02;;;;;;;2.67;2.50;;;9.60;99.90;;;;;;5097082;28;20178;-80
2023/04/13 07:16:28;;;;;;;2.90;2.40;;;9.50;99.90;;;;;;5114142;28;20196;-77
2023/04/13 07:18:54;;;;;;;2.50;2.30;;;9.50;99.90;;;;;;5114145;28;20255;-77
2023/04/13 07:21:20;;;;;;;2.40;2.30;;;9.40;99.90;;;;;;5114144;28;20168;-77
2023/04/13 07:23:46;;;;;;;3.67;2.30;;;9.40;99.90;;;;;;5113980;28;20216;-79
2023/04/13 07:26:15;;;;;;;2.57;2.37;;;9.60;99.90;;;;;;5113751;28;20165;-80
2023/04/13 07:28:41;;;;;;;2.40;2.23;;;9.70;99.90;;;;;;5113884;28;20540;-77
2023/04/13 07:31:06;;;;;;;2.57;2.47;;;9.60;99.90;;;;;;5114105;28;20166;-80
2023/04/13 07:33:32;;;;;;;3.20;2.73;;;9.60;99.90;;;;;;5113872;28;20189;-77
2023/04/13 07:35:58;;;;;;;2.63;2.43;;;9.70;99.90;;;;;;5114113;28;20595;-79
2023/04/13 07:38:24;;;;;;;2.33;2.23;;;9.80;99.90;;;;;;5113818;28;20202;-78
2023/04/13 07:40:50;;;;;;;2.50;2.07;;;9.90;99.90;;;;;;5113929;28;20181;-77
2023/04/13 07:43:16;;;;;;;2.10;1.90;;;9.90;99.90;;;;;;5095382;28;20215;-77
2023/04/13 07:45:42;;;;;;;1.87;1.77;;;9.90;99.90;;;;;;5113830;28;20167;-75
2023/04/13 07:48:08;;;;;;;2.10;2.00;;;9.90;99.90;;;;;;5113430;28;20184;-78
2023/04/13 07:50:42;;;;;;;3.63;2.17;;;9.90;99.90;;;;;;5095102;28;20648;-79
2023/04/13 07:53:08;;;;;;;2.70;2.30;;;9.80;99.90;;;;;;5096119;28;20524;-80
2023/04/13 07:55:35;;;;;;;3.90;2.10;;;9.90;99.90;;;;;;5114895;28;20169;-78
2023/04/13 07:58:01;;;;;;;2.00;1.90;;;10.00;99.90;;;;;;5113422;28;20214;-77
2023/04/13 08:00:27;;;;;;;2.13;1.97;;;10.10;99.90;;;;;;5113482;28;20184;-78
2023/04/13 08:02:56;;;;;;;1.80;1.70;;;10.10;99.90;;;;;;5113465;28;20205;-76
2023/04/13 08:05:22;;;;;;;3.50;2.03;;;10.20;99.90;;;;;;5115324;28;20185;-78
2023/04/13 08:07:48;;;;;;;1.93;1.90;;;10.20;99.90;;;;;;5117680;28;20177;-76
2023/04/13 08:10:17;;;;;;;2.63;2.07;;;10.20;99.90;;;;;;5113619;28;20833;-80
2023/04/13 08:12:42;;;;;;;2.03;1.83;;;10.30;99.90;;;;;;5095391;28;20238;-78
2023/04/13 08:15:08;;;;;;;3.58;1.90;;;10.30;99.90;;;;;;5070875;28;1216291;-79
2023/04/13 08:17:34;;;;;;;3.57;2.50;;;10.30;99.90;;;;;;5114190;28;20194;-77
2023/04/13 08:20:00;;;;;;;2.17;1.97;;;10.30;99.90;;;;;;5115014;28;20176;-78
2023/04/13 08:22:26;;;;;;;1.73;1.63;;;10.30;99.90;;;;;;5116930;28;20174;-81
2023/04/13 08:24:52;;;;;;;2.17;1.93;;;10.30;99.90;;;;;;5101122;28;20213;-78
2023/04/13 08:27:18;;;;;;;1.77;1.70;;;10.30;99.90;;;;;;5117770;28;20174;-77
2023/04/13 08:29:45;;;;;;;1.53;1.47;;;10.30;99.90;;;;;;5116909;28;20823;-77
2023/04/13 08:32:11;;;;;;;1.70;1.60;;;10.30;99.90;;;;;;5114735;28;20186;-77
2023/04/13 08:34:37;;;;;;;2.90;1.70;;;10.40;99.90;;;;;;5096675;28;20181;-78
2023/04/13 08:37:02;;;;;;;1.60;1.50;;;10.40;99.90;;;;;;5114877;28;20212;-75
2023/04/13 08:39:28;;;;;;;1.23;1.20;;;10.50;99.90;;;;;;5096692;28;20189;-76
2023/04/13 08:41:54;;;;;;;1.10;1.10;;;10.60;99.90;;;;;;5115229;28;20510;-78
2023/04/13 08:44:20;;;;;;;1.07;1.07;;;10.60;99.90;;;;;;5113533;28;20233;-77
2023/04/13 08:46:46;;;;;;;1.40;1.30;;;10.70;99.90;;;;;;5114396;28;20177;-80
2023/04/13 08:49:12;;;;;;;1.20;1.10;;;10.80;99.90;;;;;;5113672;28;20663;-78
2023/04/13 08:51:40;;;;;;;1.20;1.20;;;10.80;99.90;;;;;;5113687;28;20930;-77
2023/04/13 08:54:06;;;;;;;1.13;1.13;;;10.90;99.90;;;;;;5113617;28;20174;-78
2023/04/13 08:56:33;;;;;;;1.30;1.30;;;10.90;99.90;;;;;;5113867;28;20246;-81
2023/04/13 08:59:03;;;;;;;1.17;1.17;;;11.10;99.90;;;;;;5095134;28;20167;-77
2023/04/13 09:01:31;;;;;;;1.67;1.20;;;11.30;99.90;;;;;;5113713;28;20171;-77
2023/04/13 09:04:03;;;;;;;1.03;1.03;;;11.40;99.90;;;;;;5113375;28;20194;-80
2023/04/13 09:06:34;;;;;;;0.80;0.80;;;11.50;99.90;;;;;;5113335;28;20227;-77
2023/04/13 09:09:04;;;;;;;0.73;0.73;;;11.60;99.90;;;;;;5112928;28;20191;-76
2023/04/13 09:11:31;;;;;;;0.70;0.70;;;11.70;99.90;;;;;;5113523;28;20177;-78
2023/04/13 09:14:00;;;;;;;0.80;0.80;;;11.70;99.90;;;;;;5112909;28;20198;-80
2023/04/13 09:16:26;;;;;;;1.17;1.00;;;11.60;99.90;;;;;;5112799;28;20246;-78
2023/04/13 09:18:56;;;;;;;0.80;0.80;;;11.50;99.90;;;;;;5112798;28;20202;-76
2023/04/13 09:21:34;;;;;;;0.90;0.90;;;11.50;99.90;;;;;;5112714;28;20165;-80
2023/04/13 09:24:00;;;;;;;3.37;1.87;;;11.50;99.90;;;;;;5113024;28;20203;-75
2023/04/13 09:26:27;;;;;;;1.40;1.30;;;11.40;99.90;;;;;;5113352;28;20213;-77
2023/04/13 09:28:55;;;;;;;1.93;1.43;;;11.40;99.90;;;;;;5113168;28;20184;-77
2023/04/13 09:31:21;;;;;;;2.17;1.40;;;11.40;99.90;;;;;;5113210;28;20501;-77
2023/04/13 09:33:51;;;;;;;1.00;1.00;;;11.40;99.90;;;;;;5112712;28;20209;-80
2023/04/13 09:36:19;;;;;;;1.20;1.10;;;11.30;99.90;;;;;;5114463;28;20640;-77
2023/04/13 09:38:53;;;;;;;1.07;1.07;;;11.20;99.90;;;;;;5113626;28;20185;-77
2023/04/13 09:41:36;;;;;;;1.07;1.03;;;11.20;99.90;;;;;;5112726;28;20165;-77
2023/04/13 09:44:33;;;;;;;1.20;1.17;;;11.10;99.90;;;;;;5112667;28;20252;-77
2023/04/13 09:47:00;;;;;;;1.20;1.20;;;11.10;99.90;;;;;;5112663;28;20164;-80
2023/04/13 09:49:39;;;;;;;1.77;1.67;;;11.10;99.90;;;;;;5112310;28;20169;-78
2023/04/13 09:52:08;;;;;;;2.10;1.90;;;11.20;99.90;;;;;;5112715;28;20167;-77
2023/04/13 09:54:35;;;;;;;1.37;1.37;;;11.30;99.90;;;;;;5112509;28;20173;-77
2023/04/13 09:57:03;;;;;;;1.40;1.40;;;11.30;99.90;;;;;;5112845;28;20182;-75
2023/04/13 09:59:31;;;;;;;1.27;1.27;;;11.30;99.90;;;;;;5112328;28;20189;-79
2023/04/13 10:01:57;;;;;;;1.73;1.63;;;11.30;99.90;;;;;;5112756;28;20172;-81
2023/04/13 10:04:24;;;;;;;1.77;1.60;;;11.30;99.90;;;;;;5112456;28;20242;-79
2023/04/13 10:06:51;;;;;;;1.47;1.47;;;11.20;99.90;;;;;;5112588;28;20169;-77
2023/04/13 10:09:17;;;;;;;1.43;1.43;;;11.10;99.90;;;;;;5112380;28;20533;-79
2023/04/13 10:11:49;;;;;;;1.30;1.30;;;11.00;99.90;;;;;;5114516;28;20187;-81
2023/04/13 10:14:24;;;;;;;1.30;1.20;;;10.90;99.90;;;;;;5099710;28;20173;-78
2023/04/13 10:16:58;;;;;;;1.03;1.03;;;10.90;99.90;;;;;;5100353;28;20201;-78
2023/04/13 10:19:29;;;;;;;0.90;0.90;;;10.90;99.90;;;;;;5116911;28;20168;-76
2023/04/13 10:21:55;;;;;;;0.90;0.90;;;11.00;99.90;;;;;;5113043;28;20166;-76
2023/04/13 10:24:22;;;;;;;1.10;1.10;;;11.20;99.90;;;;;;5112897;28;20207;-76
2023/04/13 10:26:59;;;;;;;1.00;1.00;;;11.20;99.90;;;;;;5112790;28;20202;-79
2023/04/13 10:29:29;;;;;;;1.40;0.97;;;11.20;99.90;;;;;;5112385;28;20157;-78
2023/04/13 10:32:01;;;;;;;0.90;0.90;;;11.30;99.90;;;;;;5112259;28;20170;-76
2023/04/13 10:34:29;;;;;;;0.80;0.80;;;11.10;99.90;;;;;;5112595;28;20166;-78
2023/04/13 10:36:57;;;;;;;0.80;0.80;;;11.20;99.90;;;;;;5112216;28;20262;-77
2023/04/13 10:39:27;;;;;;;1.20;1.20;;;11.20;99.90;;;;;;5093384;28;20182;-78
2023/04/13 10:42:02;;;;;;;1.43;1.00;;;11.20;99.90;;;;;;5112384;28;20638;-78
2023/04/13 10:44:46;;;;;;;0.97;0.97;;;11.10;99.90;;;;;;5112175;28;20206;-77
2023/04/13 10:47:13;;;;;;;0.90;0.77;;;11.00;99.90;;;;;;5112617;28;20215;-79
2023/04/13 10:49:40;;;;;;;0.83;0.83;;;10.90;99.90;;;;;;5111806;28;20181;-76
2023/04/13 10:52:06;;;;;;;0.73;0.63;;;10.80;99.90;;;;;;5112486;28;20166;-79
2023/04/13 10:54:34;;;;;;;0.70;0.70;;;10.90;99.90;;;;;;5112122;28;20576;-77
2023/04/13 10:57:02;;;;;;;0.93;0.93;;;10.70;99.90;;;;;;5112155;28;20162;-78
2023/04/13 10:59:54;;;;;;;0.93;0.93;;;10.80;99.90;;;;;;5111955;28;20223;-75
2023/04/13 11:02:20;;;;;;;0.73;0.73;;;10.90;99.90;;;;;;5112176;28;20252;-77
2023/04/13 11:04:47;;;;;;;0.73;0.73;;;10.70;99.90;;;;;;5093816;28;20311;-80
2023/04/13 11:07:15;;;;;;;0.70;0.70;;;10.50;99.90;;;;;;5113651;28;20607;-78
2023/04/13 11:09:46;;;;;;;1.10;1.10;;;10.60;99.90;;;;;;5116152;28;20704;-79
2023/04/13 11:12:13;;;;;;;0.60;0.60;;;10.50;99.90;;;;;;5097895;28;20222;-79
2023/04/13 11:14:39;;;;;;;0.80;0.80;;;10.70;99.90;;;;;;5115659;28;20218;-79
2023/04/13 11:17:13;;;;;;;1.03;0.83;;;10.90;99.90;;;;;;5115667;28;20177;-79
2023/04/13 11:19:52;;;;;;;3.57;1.30;;;11.00;99.90;;;;;;5115646;28;20166;-78
2023/04/13 11:22:21;;;;;;;1.10;0.70;;;10.90;99.90;;;;;;5115593;28;20180;-78
2023/04/13 11:24:47;;;;;;;0.80;0.80;;;10.90;99.90;;;;;;5097208;28;20302;-80
2023/04/13 11:27:21;;;;;;;0.83;0.83;;;11.00;99.90;;;;;;5115520;28;20202;-76
2023/04/13 11:30:04;;;;;;;0.97;0.97;;;11.20;99.90;;;;;;5115170;28;20177;-77
2023/04/13 11:32:31;;;;;;;1.00;0.90;;;11.20;99.90;;;;;;5115262;28;20162;-79
2023/04/13 11:35:08;;;;;;;0.73;0.73;;;11.20;99.90;;;;;;5115308;28;20175;-76
2023/04/13 11:37:47;;;;;;;1.00;1.00;;;11.30;99.90;;;;;;5115252;28;20176;-76
2023/04/13 11:40:16;;;;;;;0.63;0.63;;;11.30;99.90;;;;;;5114912;28;20166;-79
2023/04/13 11:42:47;;;;;;;0.83;0.83;;;11.50;99.90;;;;;;5096779;28;20181;-78
2023/04/13 11:45:15;;;;;;;1.00;1.00;;;11.30;99.90;;;;;;5114939;28;20282;-79
2023/04/13 11:47:41;;;;;;;0.80;0.80;;;11.40;99.90;;;;;;5115089;28;20297;-80
2023/04/13 11:50:08;;;;;;;0.80;0.80;;;11.40;99.90;;;;;;5114724;28;20179;-81
2023/04/13 11:52:34;;;;;;;0.60;0.60;;;11.40;99.90;;;;;;5114834;28;20622;-75
2023/04/13 11:55:05;;;;;;;0.77;0.77;;;11.40;99.90;;;;;;5114923;28;20174;-76
2023/04/13 11:57:34;;;;;;;0.80;0.80;;;11.40;99.90;;;;;;5114891;28;20166;-80
2023/04/13 12:00:00;;;;;;;0.90;0.90;;;11.40;99.90;;;;;;5114557;28;20507;-77
2023/04/13 12:02:33;;;;;;;0.77;0.77;;;11.40;99.90;;;;;;5114783;28;20167;-78
2023/04/13 12:04:58;;;;;;;0.70;0.70;;;11.30;99.90;;;;;;5114888;28;20247;-81
2023/04/13 12:07:24;;;;;;;0.63;0.63;;;11.10;99.90;;;;;;5115070;28;20171;-78
2023/04/13 12:09:50;;;;;;;0.80;0.80;;;11.10;99.90;;;;;;5116212;28;20182;-82
2023/04/13 12:12:23;;;;;;;0.50;0.50;;;11.20;99.90;;;;;;5120293;28;20176;-78
2023/04/13 12:14:56;;;;;;;0.40;0.40;;;11.20;99.90;;;;;;5121411;28;20266;-77
2023/04/13 12:17:30;;;;;;;1.07;0.60;;;11.20;99.90;;;;;;5116889;28;20636;-80
2023/04/13 12:19:57;;;;;;;0.87;0.87;;;11.20;99.90;;;;;;5113799;28;20154;-82
2023/04/13 12:22:23;;;;;;;0.83;0.83;;;11.20;99.90;;;;;;5114501;28;20195;-82
2023/04/13 12:24:49;;;;;;;0.70;0.70;;;11.10;99.90;;;;;;5114618;28;20232;-80
2023/04/13 12:27:16;;;;;;;3.10;0.80;;;11.10;99.90;;;;;;5114525;28;20214;-83
2023/04/13 12:29:42;;;;;;;0.60;0.60;;;11.20;99.90;;;;;;5100858;28;20178;-81
2023/04/13 12:32:15;;;;;;;0.40;0.40;;;11.20;99.90;;;;;;5114663;28;20878;-81
2023/04/13 12:34:46;;;;;;;0.50;0.50;;;11.30;99.90;;;;;;5114534;28;20166;-83
2023/04/13 12:37:11;;;;;;;0.57;0.57;;;11.40;99.90;;;;;;5114453;28;20171;-81
2023/04/13 12:39:37;;;;;;;0.50;0.50;;;11.30;99.90;;;;;;5115217;28;20641;-82
2023/04/13 12:42:03;;;;;;;1.10;0.60;;;11.40;99.90;;;;;;5115428;28;20202;-79
2023/04/13 12:44:29;;;;;;;0.40;0.40;;;11.40;99.90;;;;;;5096045;28;20580;-80
2023/04/13 12:46:55;;;;;;;0.80;0.80;;;11.60;99.90;;;;;;5114206;28;20179;-82
2023/04/13 12:49:21;;;;;;;0.67;0.67;;;11.70;99.90;;;;;;5113893;28;20178;-77
2023/04/13 12:51:46;;;;;;;0.87;0.87;;;11.80;99.90;;;;;;5114017;28;20180;-76
2023/04/13 12:54:13;;;;;;;0.63;0.63;;;11.90;99.90;;;;;;5114397;28;20612;-83